Time;durP1;ratioP1;P1;durP2;ratioP2;P2;SDS_P1;SDS_P2;PMS_P1;PMS_P2;Temp;Humidity;BMP_temperature;BMP_pressure;BME280_temperature;BME280_humidity;BME280_pressure;Samples;Min_cycle;Max_cycle;Signal;HPM_P1;HPM_P2
2023/08/29 00:01:02;;;;;;;3.10;1.42;;;;;;;;;;4397765;32;67365;-60
2023/08/29 00:03:52;;;;;;;1.35;0.98;;;;;;;;;;4398944;32;71535;-61
2023/08/29 00:06:41;;;;;;;2.55;1.65;;;;;;;;;;4397466;32;65889;-62
2023/08/29 00:09:31;;;;;;;5.25;1.67;;;;;;;;;;4398934;32;67697;-61
2023/08/29 00:12:18;;;;;;;1.92;1.50;;;;;;;;;;4399120;32;59019;-61
2023/08/29 00:15:05;;;;;;;;;;;;;;;;;;4397623;32;70688;-61
2023/08/29 00:17:51;;;;;;;1.85;1.33;;;;;;;;;;4397896;32;65930;-62
2023/08/29 00:20:41;;;;;;;1.55;1.15;;;;;;;;;;4396998;32;67670;-61
2023/08/29 00:23:27;;;;;;;4.43;1.73;;;;;;;;;;4398820;32;59997;-61
2023/08/29 00:26:16;;;;;;;2.15;1.35;;;;;;;;;;4398558;32;70681;-61
2023/08/29 00:29:03;;;;;;;2.53;1.40;;;;;;;;;;4397226;32;69800;-61
2023/08/29 00:31:53;;;;;;;2.60;1.92;;;;;;;;;;4397200;32;67615;-62
2023/08/29 00:34:39;;;;;;;3.53;1.62;;;;;;;;;;4386162;32;72319;-61
2023/08/29 00:37:27;;;;;;;2.70;1.52;;;;;;;;;;4376157;32;66838;-62
2023/08/29 00:40:14;;;;;;;3.80;1.83;;;;;;;;;;4397250;32;67770;-61
2023/08/29 00:43:01;;;;;;;2.33;1.52;;;;;;;;;;4386418;32;67669;-61
2023/08/29 00:45:48;;;;;;;3.92;1.80;;;;;;;;;;4396970;32;71989;-61
2023/08/29 00:48:37;;;;;;;3.37;1.90;;;;;;;;;;4397028;32;64634;-61
2023/08/29 00:51:26;;;;;;;1.85;1.35;;;;;;;;;;4397321;32;67204;-61
2023/08/29 00:54:18;;;;;;;3.60;2.10;;;;;;;;;;4386813;32;60267;-61
2023/08/29 00:57:05;;;;;;;5.80;2.22;;;;;;;;;;4396424;32;69893;-61
2023/08/29 00:59:52;;;;;;;2.05;1.67;;;;;;;;;;4398148;32;68427;-61
2023/08/29 01:02:40;;;;;;;4.07;1.90;;;;;;;;;;4398035;32;67648;-61
2023/08/29 01:05:30;;;;;;;2.65;1.90;;;;;;;;;;4398675;32;70736;-61
2023/08/29 01:08:17;;;;;;;2.50;1.62;;;;;;;;;;4385973;32;70287;-60
2023/08/29 01:11:25;;;;;;;2.80;1.90;;;;;;;;;;4398080;32;69570;-62
2023/08/29 01:14:25;;;;;;;2.37;1.85;;;;;;;;;;4398604;32;66387;-61
2023/08/29 01:17:47;;;;;;;5.25;2.45;;;;;;;;;;4396584;32;72082;-60
2023/08/29 01:20:34;;;;;;;5.20;2.00;;;;;;;;;;4385738;32;65951;-61
2023/08/29 01:23:46;;;;;;;1.37;1.12;;;;;;;;;;4397979;32;67482;-61
2023/08/29 01:26:32;;;;;;;2.50;1.98;;;;;;;;;;4385646;32;59735;-62
2023/08/29 01:29:20;;;;;;;3.60;1.87;;;;;;;;;;4396585;32;69414;-61
2023/08/29 01:32:07;;;;;;;2.42;1.80;;;;;;;;;;4397899;32;69553;-62
2023/08/29 01:34:56;;;;;;;4.22;1.65;;;;;;;;;;4385795;32;68556;-61
2023/08/29 01:37:40;;;;;;;2.72;1.90;;;;;;;;;;3869602;36;43454;-62
2023/08/29 01:40:27;;;;;;;2.35;1.92;;;;;;;;;;4414488;32;59919;-60
2023/08/29 01:43:14;;;;;;;;;;;;;;;;;;4411914;32;69258;-60
2023/08/29 01:46:03;;;;;;;2.72;2.20;;;;;;;;;;4414470;32;69007;-60
2023/08/29 01:48:49;;;;;;;3.97;1.50;;;;;;;;;;4426491;32;67531;-62
2023/08/29 01:51:36;;;;;;;3.72;2.15;;;;;;;;;;4400354;32;72933;-61
2023/08/29 01:54:22;;;;;;;3.47;1.70;;;;;;;;;;4426393;32;66036;-60
2023/08/29 01:59:52;;;;;;;3.92;2.10;;;;;;;;;;3848073;37;43457;-60
2023/08/29 02:02:40;;;;;;;5.43;2.10;;;;;;;;;;4398677;32;59819;-62
2023/08/29 02:05:26;;;;;;;;;;;;;;;;;;4387667;32;71007;-61
2023/08/29 02:08:12;;;;;;;3.03;1.90;;;;;;;;;;4410967;32;69392;-61
2023/08/29 02:10:59;;;;;;;2.45;1.55;;;;;;;;;;4398248;32;67724;-61
2023/08/29 02:13:45;;;;;;;2.55;1.80;;;;;;;;;;4408947;32;72390;-60
2023/08/29 02:16:34;;;;;;;3.08;2.20;;;;;;;;;;4410876;32;66173;-61
2023/08/29 02:19:21;;;;;;;2.62;1.92;;;;;;;;;;4410807;32;66503;-61
2023/08/29 02:22:08;;;;;;;2.05;0.98;;;;;;;;;;4401192;32;60149;-62
2023/08/29 02:24:54;;;;;;;2.55;1.92;;;;;;;;;;4409355;32;71278;-61
2023/08/29 02:27:47;;;;;;;4.10;1.92;;;;;;;;;;4410733;32;65822;-61
2023/08/29 02:30:38;;;;;;;10.13;2.25;;;;;;;;;;4409492;32;67800;-61
2023/08/29 02:33:25;;;;;;;2.87;1.75;;;;;;;;;;4410991;32;60143;-61
2023/08/29 02:36:12;;;;;;;3.42;2.15;;;;;;;;;;4409350;32;70260;-61
2023/08/29 02:38:59;;;;;;;2.90;2.15;;;;;;;;;;4410433;32;69580;-61
2023/08/29 02:41:45;;;;;;;4.90;2.33;;;;;;;;;;4410654;32;66826;-62
2023/08/29 02:44:32;;;;;;;3.25;1.67;;;;;;;;;;4398535;32;70981;-62
2023/08/29 02:47:19;;;;;;;4.70;2.10;;;;;;;;;;4413154;32;65608;-61
2023/08/29 02:50:06;;;;;;;2.85;1.77;;;;;;;;;;4410660;32;69313;-61
2023/08/29 02:52:53;;;;;;;1.92;1.55;;;;;;;;;;4411115;32;66585;-61
2023/08/29 02:55:40;;;;;;;;;;;;;;;;;;4409823;32;71575;-61
2023/08/29 02:58:31;;;;;;;3.67;2.22;;;;;;;;;;4410407;32;65943;-61
2023/08/29 03:01:19;;;;;;;4.10;2.10;;;;;;;;;;4409726;32;67469;-61
2023/08/29 03:04:05;;;;;;;2.60;1.92;;;;;;;;;;4411640;32;60340;-63
2023/08/29 03:06:54;;;;;;;2.50;1.87;;;;;;;;;;4402049;32;70431;-61
2023/08/29 03:09:44;;;;;;;3.17;2.15;;;;;;;;;;4416064;32;68550;-62
2023/08/29 03:12:30;;;;;;;3.87;2.20;;;;;;;;;;4409500;32;67746;-61
2023/08/29 03:15:21;;;;;;;3.67;1.80;;;;;;;;;;4403270;32;60508;-61
2023/08/29 03:18:03;;;;;;;5.47;1.70;;;;;;;;;;3855115;37;43908;-61
2023/08/29 03:20:53;;;;;;;3.45;2.20;;;;;;;;;;4414179;32;59544;-61
2023/08/29 03:23:34;;;;;;;4.12;2.30;;;;;;;;;;3861432;37;42846;-61
2023/08/29 03:26:22;;;;;;;3.05;2.17;;;;;;;;;;4421704;32;58668;-61
2023/08/29 03:29:08;;;;;;;3.53;2.20;;;;;;;;;;4429639;32;69586;-60
2023/08/29 03:31:57;;;;;;;;;;;;;;;;;;4427736;32;70863;-61
2023/08/29 03:34:44;;;;;;;2.67;2.20;;;;;;;;;;4422807;32;66914;-61
2023/08/29 03:37:31;;;;;;;3.30;2.20;;;;;;;;;;4423929;32;72215;-61
2023/08/29 03:40:17;;;;;;;4.25;1.92;;;;;;;;;;4427158;32;65329;-61
2023/08/29 03:43:07;;;;;;;4.78;1.65;;;;;;;;;;4424096;32;67459;-63
2023/08/29 03:46:07;;;;;;;4.82;2.10;;;;;;;;;;4415455;32;59658;-60
2023/08/29 03:48:54;;;;;;;3.50;2.20;;;;;;;;;;4409508;32;71671;-61
2023/08/29 03:51:42;;;;;;;2.53;2.10;;;;;;;;;;4409701;32;64929;-61
2023/08/29 03:54:33;;;;;;;1.70;1.05;;;;;;;;;;4412767;32;67808;-64
2023/08/29 03:57:24;;;;;;;1.45;1.15;;;;;;;;;;4415376;32;60360;-61
2023/08/29 04:00:19;;;;;;;2.83;1.80;;;;;;;;;;4413201;32;69677;-61
2023/08/29 04:03:06;;;;;;;2.83;1.92;;;;;;;;;;4412497;32;69604;-61
2023/08/29 04:05:52;;;;;;;5.35;2.60;;;;;;;;;;4410720;32;67961;-61
2023/08/29 04:08:42;;;;;;;3.05;1.87;;;;;;;;;;4398942;32;71646;-61
2023/08/29 04:11:30;;;;;;;3.95;2.65;;;;;;;;;;4398234;32;66873;-62
2023/08/29 04:14:17;;;;;;;4.65;2.67;;;;;;;;;;4410390;32;69216;-62
2023/08/29 04:17:06;;;;;;;3.78;2.30;;;;;;;;;;4398110;32;68328;-61
2023/08/29 04:19:55;;;;;;;4.10;2.78;;;;;;;;;;4409063;32;71556;-61
2023/08/29 04:22:42;;;;;;;2.85;1.80;;;;;;;;;;4410011;32;65717;-61
2023/08/29 04:25:37;;;;;;;3.50;2.55;;;;;;;;;;4410329;32;67625;-60
2023/08/29 04:28:23;;;;;;;2.60;2.00;;;;;;;;;;4410538;32;60225;-62
2023/08/29 04:31:14;;;;;;;3.37;1.92;;;;;;;;;;4408422;32;71028;-61
2023/08/29 04:34:01;;;;;;;3.53;2.15;;;;;;;;;;4403584;32;69275;-61
2023/08/29 04:36:48;;;;;;;2.95;1.95;;;;;;;;;;4388281;32;67508;-61
2023/08/29 04:39:37;;;;;;;2.97;2.22;;;;;;;;;;4400286;32;59118;-62
2023/08/29 04:42:24;;;;;;;4.05;2.08;;;;;;;;;;4398648;32;70477;-60
2023/08/29 04:45:11;;;;;;;4.00;2.10;;;;;;;;;;4387298;32;69799;-61
2023/08/29 04:47:58;;;;;;;4.03;2.22;;;;;;;;;;4387834;32;67666;-61
2023/08/29 04:50:47;;;;;;;4.80;2.35;;;;;;;;;;4399811;32;71736;-59
2023/08/29 04:53:36;;;;;;;3.87;2.22;;;;;;;;;;4399760;32;66269;-62
2023/08/29 04:56:25;;;;;;;3.42;2.40;;;;;;;;;;4397901;32;68145;-60
2023/08/29 04:59:11;;;;;;;4.32;2.50;;;;;;;;;;4387519;32;59902;-60
2023/08/29 05:01:59;;;;;;;3.47;2.30;;;;;;;;;;4386684;32;71474;-59
2023/08/29 05:04:48;;;;;;;3.25;2.10;;;;;;;;;;4398498;32;66018;-59
2023/08/29 05:07:36;;;;;;;4.30;1.77;;;;;;;;;;4399563;32;66674;-60
2023/08/29 05:10:25;;;;;;;3.83;2.37;;;;;;;;;;4399918;32;60438;-60
2023/08/29 05:13:19;;;;;;;3.80;2.35;;;;;;;;;;4400116;32;70707;-60
2023/08/29 05:16:06;;;;;;;;;;;;;;;;;;4399838;32;69466;-59
2023/08/29 05:18:52;;;;;;;4.65;2.55;;;;;;;;;;4399471;32;67603;-60
2023/08/29 05:21:42;;;;;;;4.65;2.55;;;;;;;;;;4398806;32;70766;-59
2023/08/29 05:24:29;;;;;;;4.72;2.47;;;;;;;;;;4398099;32;65851;-60
2023/08/29 05:27:16;;;;;;;3.97;2.55;;;;;;;;;;4399544;32;67436;-60
2023/08/29 05:30:03;;;;;;;5.35;2.67;;;;;;;;;;4398038;32;67705;-60
2023/08/29 05:32:56;;;;;;;3.87;2.50;;;;;;;;;;4387902;32;70726;-60
2023/08/29 05:35:47;;;;;;;3.40;1.95;;;;;;;;;;4398002;32;65006;-60
2023/08/29 05:38:34;;;;;;;1.80;1.15;;;;;;;;;;4386812;32;67158;-59
2023/08/29 05:41:23;;;;;;;3.62;2.40;;;;;;;;;;4400165;32;58696;-59
2023/08/29 05:44:10;;;;;;;4.20;2.10;;;;;;;;;;4397685;32;70521;-60
2023/08/29 05:46:57;;;;;;;3.40;2.22;;;;;;;;;;4398590;32;69725;-60
2023/08/29 05:49:43;;;;;;;;;;;;;;;;;;4398098;32;67794;-61
2023/08/29 05:52:32;;;;;;;3.87;1.60;;;;;;;;;;4399181;32;58510;-61
2023/08/29 05:55:24;;;;;;;3.28;2.10;;;;;;;;;;4397458;32;70994;-61
2023/08/29 05:58:11;;;;;;;2.95;2.10;;;;;;;;;;4398877;32;69065;-61
2023/08/29 06:01:00;;;;;;;1.95;1.70;;;;;;;;;;4387079;32;68266;-61
2023/08/29 06:03:49;;;;;;;2.70;1.83;;;;;;;;;;4400742;32;70694;-61
2023/08/29 06:06:39;;;;;;;4.43;2.10;;;;;;;;;;4397681;32;66316;-59
2023/08/29 06:09:26;;;;;;;2.65;2.10;;;;;;;;;;4397679;32;67861;-59
2023/08/29 06:12:13;;;;;;;2.95;2.12;;;;;;;;;;4397133;32;60762;-60
2023/08/29 06:14:59;;;;;;;3.40;2.22;;;;;;;;;;4386617;32;69702;-59
2023/08/29 06:17:46;;;;;;;1.33;1.17;;;;;;;;;;4398752;32;65785;-60
2023/08/29 06:20:33;;;;;;;2.78;1.95;;;;;;;;;;4399773;32;67524;-59
2023/08/29 06:23:20;;;;;;;2.97;1.77;;;;;;;;;;4386452;32;60281;-60
2023/08/29 06:26:07;;;;;;;3.80;2.25;;;;;;;;;;4385936;32;70635;-60
2023/08/29 06:28:56;;;;;;;;;;;;;;;;;;4397325;32;68538;-60
2023/08/29 06:31:42;;;;;;;4.72;2.42;;;;;;;;;;4396741;32;70543;-60
2023/08/29 06:34:29;;;;;;;2.87;1.92;;;;;;;;;;4386677;32;71067;-59
2023/08/29 06:37:16;;;;;;;3.45;1.67;;;;;;;;;;4386107;32;65836;-60
2023/08/29 06:40:07;;;;;;;5.15;1.90;;;;;;;;;;4385837;32;67932;-59
2023/08/29 06:42:54;;;;;;;1.80;1.25;;;;;;;;;;4397099;32;66916;-60
2023/08/29 06:45:40;;;;;;;3.58;2.20;;;;;;;;;;4396725;32;70826;-59
2023/08/29 06:48:27;;;;;;;;;;;;;;;;;;4398681;32;66222;-60
2023/08/29 06:51:14;;;;;;;6.25;2.42;;;;;;;;;;4397943;32;68093;-59
2023/08/29 06:54:00;;;;;;;4.53;2.30;;;;;;;;;;4386596;32;59336;-60
2023/08/29 06:56:49;;;;;;;4.35;2.58;;;;;;;;;;4397732;32;69657;-60
2023/08/29 06:59:36;;;;;;;3.30;2.25;;;;;;;;;;4386163;32;68945;-59
2023/08/29 07:02:22;;;;;;;2.55;2.15;;;;;;;;;;4396710;32;67610;-60
2023/08/29 07:05:09;;;;;;;3.45;2.22;;;;;;;;;;4398281;32;70771;-60
2023/08/29 07:09:43;;;;;;;3.67;2.63;;;;;;;;;;3846071;37;43500;-60
2023/08/29 07:12:30;;;;;;;0.95;0.90;;;;;;;;;;4410106;32;60183;-61
2023/08/29 07:15:18;;;;;;;3.17;2.30;;;;;;;;;;4410862;32;70245;-60
2023/08/29 07:18:09;;;;;;;8.60;2.17;;;;;;;;;;4398620;32;69363;-59
2023/08/29 07:20:58;;;;;;;4.87;2.97;;;;;;;;;;4410792;32;67602;-60
2023/08/29 07:23:45;;;;;;;5.70;2.92;;;;;;;;;;4410576;32;70652;-59
2023/08/29 07:26:32;;;;;;;2.92;1.67;;;;;;;;;;4409399;32;64977;-60
2023/08/29 07:29:19;;;;;;;4.43;2.47;;;;;;;;;;4409370;32;67151;-60
2023/08/29 07:32:06;;;;;;;5.32;2.58;;;;;;;;;;4410916;32;60096;-60
2023/08/29 07:34:54;;;;;;;2.60;2.03;;;;;;;;;;4398412;32;71601;-59
2023/08/29 07:37:40;;;;;;;4.18;2.70;;;;;;;;;;4410683;32;65266;-60
2023/08/29 07:40:26;;;;;;;;;;;;;;;;;;4398826;32;67503;-60
2023/08/29 07:43:14;;;;;;;4.03;2.70;;;;;;;;;;4409714;32;59587;-60
2023/08/29 07:46:01;;;;;;;3.85;2.15;;;;;;;;;;4398595;32;70698;-61
2023/08/29 07:48:53;;;;;;;3.28;2.00;;;;;;;;;;4409009;32;69316;-60
2023/08/29 07:51:43;;;;;;;3.10;2.20;;;;;;;;;;4408430;32;69955;-60
2023/08/29 07:54:29;;;;;;;4.57;2.12;;;;;;;;;;4408936;32;70958;-59
2023/08/29 07:57:16;;;;;;;3.85;2.17;;;;;;;;;;4409233;32;65194;-60
2023/08/29 08:00:03;;;;;;;2.72;1.90;;;;;;;;;;4410316;32;69342;-61
2023/08/29 08:02:51;;;;;;;3.65;2.25;;;;;;;;;;4409154;32;66675;-61
2023/08/29 08:05:38;;;;;;;1.90;1.67;;;;;;;;;;4387397;32;70803;-61
2023/08/29 08:08:24;;;;;;;6.95;2.85;;;;;;;;;;4411378;32;65818;-60
2023/08/29 08:11:11;;;;;;;4.03;2.53;;;;;;;;;;4410237;32;66773;-59
2023/08/29 08:13:57;;;;;;;;;;;;;;;;;;4398485;32;60227;-58
2023/08/29 08:16:44;;;;;;;3.33;2.35;;;;;;;;;;4408968;32;69829;-60
2023/08/29 08:19:30;;;;;;;3.97;1.83;;;;;;;;;;4404204;32;68921;-59
2023/08/29 08:22:17;;;;;;;3.55;1.92;;;;;;;;;;4387158;32;67799;-59
2023/08/29 08:25:06;;;;;;;3.70;2.30;;;;;;;;;;4398714;32;60040;-60
2023/08/29 08:27:53;;;;;;;3.40;1.95;;;;;;;;;;4399742;32;70655;-60
2023/08/29 08:30:39;;;;;;;4.97;2.40;;;;;;;;;;4387612;32;68262;-59
2023/08/29 08:33:26;;;;;;;;;;;;;;;;;;4398667;32;66637;-60
2023/08/29 08:36:13;;;;;;;4.15;2.65;;;;;;;;;;4398644;32;71126;-61
2023/08/29 08:38:59;;;;;;;3.85;2.05;;;;;;;;;;4398159;32;65072;-59
2023/08/29 08:41:46;;;;;;;5.05;2.65;;;;;;;;;;4398504;32;67969;-59
2023/08/29 08:44:32;;;;;;;3.60;1.60;;;;;;;;;;4399839;32;60152;-58
2023/08/29 08:47:19;;;;;;;4.65;2.67;;;;;;;;;;4400748;32;70970;-60
2023/08/29 08:50:08;;;;;;;4.22;2.33;;;;;;;;;;4398305;32;66302;-61
2023/08/29 08:52:56;;;;;;;4.32;2.35;;;;;;;;;;4397620;32;68067;-61
2023/08/29 08:55:43;;;;;;;4.90;2.35;;;;;;;;;;4377240;32;60150;-60
2023/08/29 08:58:35;;;;;;;2.90;1.87;;;;;;;;;;4399418;32;70551;-61
2023/08/29 09:01:23;;;;;;;4.85;2.72;;;;;;;;;;4398191;32;69459;-60
2023/08/29 09:04:10;;;;;;;4.50;2.33;;;;;;;;;;4399508;32;66817;-60
2023/08/29 09:06:56;;;;;;;3.87;2.37;;;;;;;;;;4387266;32;71478;-60
2023/08/29 09:09:43;;;;;;;;;;;;;;;;;;4399674;32;64899;-60
2023/08/29 09:12:29;;;;;;;3.15;2.28;;;;;;;;;;4399675;32;67640;-60
2023/08/29 09:15:16;;;;;;;3.85;2.37;;;;;;;;;;4399377;32;66677;-60
2023/08/29 09:18:07;;;;;;;3.83;2.33;;;;;;;;;;4387303;32;71584;-60
2023/08/29 09:20:53;;;;;;;3.05;2.47;;;;;;;;;;4397742;32;66121;-60
2023/08/29 09:23:40;;;;;;;0.75;0.62;;;;;;;;;;4398122;32;67317;-60
2023/08/29 09:26:32;;;;;;;5.95;2.90;;;;;;;;;;4399584;32;60148;-61
2023/08/29 09:29:20;;;;;;;4.90;2.65;;;;;;;;;;4399782;32;69710;-61
2023/08/29 09:32:13;;;;;;;5.10;2.90;;;;;;;;;;4398588;32;68464;-59
2023/08/29 09:35:05;;;;;;;3.53;2.60;;;;;;;;;;4391337;32;67534;-61
2023/08/29 09:37:54;;;;;;;4.90;2.85;;;;;;;;;;4401409;32;60563;-60
2023/08/29 09:40:48;;;;;;;5.12;2.55;;;;;;;;;;4401342;32;70763;-61
2023/08/29 09:43:47;;;;;;;7.85;2.65;;;;;;;;;;4397759;32;69219;-60
2023/08/29 09:46:34;;;;;;;5.40;2.62;;;;;;;;;;4398746;32;66856;-60
2023/08/29 09:49:20;;;;;;;3.25;2.53;;;;;;;;;;4396767;32;71968;-60
2023/08/29 09:52:08;;;;;;;6.32;3.17;;;;;;;;;;4398743;32;65948;-61
2023/08/29 09:54:55;;;;;;;4.32;2.75;;;;;;;;;;4386172;32;67162;-61
2023/08/29 09:57:48;;;;;;;3.25;2.37;;;;;;;;;;4387236;32;59230;-60
2023/08/29 10:00:38;;;;;;;3.05;2.28;;;;;;;;;;4398157;32;70396;-60
2023/08/29 10:03:25;;;;;;;6.03;2.80;;;;;;;;;;4397252;32;65779;-60
2023/08/29 10:06:16;;;;;;;5.85;2.50;;;;;;;;;;4397268;32;67533;-61
2023/08/29 10:09:06;;;;;;;3.00;2.45;;;;;;;;;;4397093;32;59233;-60
2023/08/29 10:11:54;;;;;;;3.53;2.42;;;;;;;;;;4386417;32;70814;-61
2023/08/29 10:14:42;;;;;;;4.90;2.53;;;;;;;;;;4398254;32;68406;-62
2023/08/29 10:17:36;;;;;;;4.12;2.70;;;;;;;;;;4398566;32;66773;-60
2023/08/29 10:20:24;;;;;;;3.72;2.42;;;;;;;;;;4396937;32;70977;-60
2023/08/29 10:23:12;;;;;;;3.05;2.22;;;;;;;;;;4397248;32;65039;-61
2023/08/29 10:26:00;;;;;;;3.90;2.60;;;;;;;;;;4397699;32;67738;-61
2023/08/29 10:28:47;;;;;;;3.08;2.25;;;;;;;;;;4375394;32;67503;-60
2023/08/29 10:31:35;;;;;;;5.28;2.60;;;;;;;;;;4374688;32;72057;-61
2023/08/29 10:34:26;;;;;;;3.97;2.95;;;;;;;;;;4375114;32;67322;-60
2023/08/29 10:37:20;;;;;;;4.10;2.70;;;;;;;;;;4397218;32;66672;-61
2023/08/29 10:40:11;;;;;;;5.45;2.70;;;;;;;;;;4398454;32;59157;-61
2023/08/29 10:43:00;;;;;;;6.53;2.67;;;;;;;;;;4396300;32;70327;-61
2023/08/29 10:45:52;;;;;;;5.00;2.90;;;;;;;;;;4398260;32;69155;-60
2023/08/29 10:48:44;;;;;;;4.57;2.58;;;;;;;;;;4396418;32;67225;-61
2023/08/29 10:51:32;;;;;;;4.35;2.22;;;;;;;;;;4396932;32;70909;-61
2023/08/29 10:54:29;;;;;;;3.65;1.87;;;;;;;;;;4398012;32;70613;-61
2023/08/29 10:57:31;;;;;;;5.12;2.95;;;;;;;;;;4396776;32;68519;-60
2023/08/29 11:00:56;;;;;;;5.40;3.00;;;;;;;;;;4386116;32;67645;-60
2023/08/29 11:03:51;;;;;;;3.67;2.85;;;;;;;;;;4335204;32;70657;-61
2023/08/29 11:06:54;;;;;;;4.22;3.03;;;;;;;;;;4324900;32;65844;-60
2023/08/29 11:09:41;;;;;;;4.45;1.90;;;;;;;;;;4396752;32;66615;-61
2023/08/29 11:12:28;;;;;;;3.58;2.85;;;;;;;;;;4397085;32;60124;-61
2023/08/29 11:15:14;;;;;;;7.82;5.18;;;;;;;;;;4396034;32;70364;-60
2023/08/29 11:18:22;;;;;;;;;;;;;;;;;;4398500;32;69354;-61
2023/08/29 11:21:10;;;;;;;6.37;3.42;;;;;;;;;;4398156;32;66973;-61
2023/08/29 11:23:58;;;;;;;6.25;3.25;;;;;;;;;;4398000;32;59211;-61
2023/08/29 11:26:46;;;;;;;8.82;6.57;;;;;;;;;;4398103;32;70598;-60
2023/08/29 11:29:36;;;;;;;6.40;4.07;;;;;;;;;;4397864;32;69336;-61
2023/08/29 11:32:23;;;;;;;4.85;2.75;;;;;;;;;;4396710;32;66498;-61
2023/08/29 11:35:12;;;;;;;4.97;2.90;;;;;;;;;;4396704;32;71669;-60
2023/08/29 11:38:01;;;;;;;4.90;2.87;;;;;;;;;;4385222;32;66686;-61
2023/08/29 11:40:48;;;;;;;3.35;2.50;;;;;;;;;;4397862;32;66801;-60
2023/08/29 11:43:35;;;;;;;4.85;2.60;;;;;;;;;;4396625;32;60194;-61
2023/08/29 11:46:22;;;;;;;9.10;2.58;;;;;;;;;;4396078;32;72313;-61
2023/08/29 11:49:13;;;;;;;;;;;;;;;;;;4397016;32;65161;-61
2023/08/29 11:51:59;;;;;;;1.75;1.33;;;;;;;;;;4396908;32;68213;-61
2023/08/29 11:54:45;;;;;;;;;;;;;;;;;;4398358;32;60428;-61
2023/08/29 11:57:32;;;;;;;4.10;2.67;;;;;;;;;;4401146;32;69421;-61
2023/08/29 12:00:18;;;;;;;2.47;1.85;;;;;;;;;;4398349;32;69864;-61
2023/08/29 12:03:08;;;;;;;5.60;2.90;;;;;;;;;;4398812;32;67645;-61
2023/08/29 12:05:58;;;;;;;3.95;2.70;;;;;;;;;;4366613;32;71569;-59
2023/08/29 12:08:46;;;;;;;3.25;2.10;;;;;;;;;;4398231;32;69577;-61
2023/08/29 12:11:42;;;;;;;3.28;2.17;;;;;;;;;;4399938;32;69493;-61
2023/08/29 12:14:29;;;;;;;2.62;1.90;;;;;;;;;;4387902;32;68543;-61
2023/08/29 12:17:16;;;;;;;2.67;2.10;;;;;;;;;;4399636;32;71620;-61
2023/08/29 12:20:03;;;;;;;2.95;2.00;;;;;;;;;;4387579;32;66854;-60
2023/08/29 12:22:50;;;;;;;1.23;1.12;;;;;;;;;;4399445;32;67790;-61
2023/08/29 12:25:37;;;;;;;2.50;2.22;;;;;;;;;;4387827;32;60672;-61
2023/08/29 12:28:27;;;;;;;3.15;1.83;;;;;;;;;;4398514;32;69244;-61
2023/08/29 12:31:13;;;;;;;3.75;1.90;;;;;;;;;;4400172;32;69207;-61
2023/08/29 12:34:00;;;;;;;2.05;1.50;;;;;;;;;;4402026;32;68226;-61
2023/08/29 12:36:46;;;;;;;5.37;2.10;;;;;;;;;;4399912;32;59313;-61
2023/08/29 12:39:33;;;;;;;3.50;1.95;;;;;;;;;;4399804;32;70509;-60
2023/08/29 12:42:21;;;;;;;2.95;2.10;;;;;;;;;;4399601;32;68493;-59
2023/08/29 12:45:09;;;;;;;4.18;2.12;;;;;;;;;;4398291;32;67579;-60
2023/08/29 12:47:56;;;;;;;5.80;2.03;;;;;;;;;;4398417;32;71979;-62
2023/08/29 12:50:42;;;;;;;2.95;1.95;;;;;;;;;;4376949;32;64859;-61
2023/08/29 12:53:33;;;;;;;3.35;2.00;;;;;;;;;;4399666;32;67716;-61
2023/08/29 12:56:24;;;;;;;4.43;2.20;;;;;;;;;;4399650;32;60705;-62
2023/08/29 12:59:10;;;;;;;5.07;2.30;;;;;;;;;;4399392;32;70883;-61
2023/08/29 13:01:57;;;;;;;5.22;2.20;;;;;;;;;;4398285;32;66153;-61
2023/08/29 13:04:43;;;;;;;1.98;1.25;;;;;;;;;;4399398;32;67632;-61
2023/08/29 13:07:30;;;;;;;4.35;2.17;;;;;;;;;;4399214;32;59121;-61
2023/08/29 13:10:16;;;;;;;3.53;1.87;;;;;;;;;;4398617;32;69840;-60
2023/08/29 13:13:03;;;;;;;5.32;2.20;;;;;;;;;;4386417;32;68921;-60
2023/08/29 13:15:49;;;;;;;;;;;;;;;;;;4399732;32;67794;-61
2023/08/29 13:18:36;;;;;;;5.30;2.30;;;;;;;;;;4397956;32;72043;-61
2023/08/29 13:21:25;;;;;;;6.07;2.53;;;;;;;;;;4400083;32;65610;-60
2023/08/29 13:24:11;;;;;;;6.40;2.20;;;;;;;;;;4399033;32;69227;-61
2023/08/29 13:26:58;;;;;;;2.83;2.35;;;;;;;;;;4399302;32;67669;-63
2023/08/29 13:29:45;;;;;;;3.67;2.35;;;;;;;;;;4397534;32;71756;-60
2023/08/29 13:32:35;;;;;;;;;;;;;;;;;;4398172;32;65975;-61
2023/08/29 13:35:23;;;;;;;4.43;2.25;;;;;;;;;;4397829;32;67667;-61
2023/08/29 13:38:10;;;;;;;;;;;;;;;;;;4399426;32;59229;-61
2023/08/29 13:40:59;;;;;;;3.12;1.62;;;;;;;;;;4387364;32;70131;-60
2023/08/29 13:43:46;;;;;;;3.08;2.58;;;;;;;;;;4399078;32;69188;-61
2023/08/29 13:46:33;;;;;;;4.90;2.30;;;;;;;;;;4397555;32;67853;-61
2023/08/29 13:49:19;;;;;;;2.60;2.00;;;;;;;;;;4397619;32;59064;-61
2023/08/29 13:52:08;;;;;;;;;;;;;;;;;;4398945;32;69632;-61
2023/08/29 13:54:54;;;;;;;2.47;1.92;;;;;;;;;;4397643;32;69359;-63
2023/08/29 13:57:43;;;;;;;2.53;1.85;;;;;;;;;;4398825;32;66761;-61
2023/08/29 14:00:30;;;;;;;3.47;1.83;;;;;;;;;;4397436;32;71470;-61
2023/08/29 14:03:18;;;;;;;3.47;2.03;;;;;;;;;;4397490;32;65984;-60
2023/08/29 14:06:04;;;;;;;4.85;2.62;;;;;;;;;;4397563;32;66903;-61
2023/08/29 14:08:51;;;;;;;;;;;;;;;;;;4398982;32;60175;-61
2023/08/29 14:11:38;;;;;;;6.47;2.22;;;;;;;;;;4398739;32;70172;-60
2023/08/29 14:14:24;;;;;;;3.30;2.30;;;;;;;;;;4397746;32;66834;-59
2023/08/29 14:17:14;;;;;;;3.87;2.17;;;;;;;;;;4398045;32;66980;-60
2023/08/29 14:20:05;;;;;;;4.20;2.50;;;;;;;;;;4397441;32;59186;-60
2023/08/29 14:22:58;;;;;;;3.08;2.08;;;;;;;;;;4398399;32;70459;-61
2023/08/29 14:25:45;;;;;;;3.78;2.30;;;;;;;;;;4386622;32;68417;-60
2023/08/29 14:28:35;;;;;;;4.53;2.00;;;;;;;;;;4398323;32;66792;-62
2023/08/29 14:31:23;;;;;;;4.00;2.30;;;;;;;;;;4398049;32;71833;-61
2023/08/29 14:34:12;;;;;;;5.28;2.10;;;;;;;;;;4398555;32;64692;-60
2023/08/29 14:37:00;;;;;;;4.97;2.55;;;;;;;;;;4397080;32;68541;-61
2023/08/29 14:39:50;;;;;;;3.30;1.98;;;;;;;;;;4396851;32;66941;-62
2023/08/29 14:42:36;;;;;;;3.95;2.08;;;;;;;;;;4396941;32;71860;-60
2023/08/29 14:45:23;;;;;;;3.45;2.67;;;;;;;;;;4398263;32;65016;-58
2023/08/29 14:48:11;;;;;;;5.45;3.03;;;;;;;;;;4396807;32;67932;-60
2023/08/29 14:50:58;;;;;;;3.92;2.33;;;;;;;;;;4396889;32;59255;-61
2023/08/29 14:53:44;;;;;;;5.25;3.20;;;;;;;;;;4396461;32;69744;-59
2023/08/29 14:56:35;;;;;;;;;;;;;;;;;;4396749;32;68418;-61
2023/08/29 14:59:22;;;;;;;4.80;3.05;;;;;;;;;;4397771;32;67252;-60
2023/08/29 15:02:08;;;;;;;4.47;2.45;;;;;;;;;;4397778;32;59484;-60
2023/08/29 15:04:55;;;;;;;6.32;3.10;;;;;;;;;;4397460;32;70296;-61
2023/08/29 15:07:42;;;;;;;4.95;3.53;;;;;;;;;;4395935;32;69327;-60
2023/08/29 15:10:30;;;;;;;7.70;3.72;;;;;;;;;;4375053;32;67623;-60
2023/08/29 15:13:17;;;;;;;5.62;3.47;;;;;;;;;;4395580;32;72253;-60
2023/08/29 15:16:04;;;;;;;5.80;3.05;;;;;;;;;;4385133;32;66900;-59
2023/08/29 15:18:51;;;;;;;7.43;3.35;;;;;;;;;;4397723;32;68067;-59
2023/08/29 15:21:37;;;;;;;4.15;2.95;;;;;;;;;;4398020;32;60020;-59
2023/08/29 15:24:26;;;;;;;5.65;3.50;;;;;;;;;;4401985;32;70660;-58
2023/08/29 15:27:13;;;;;;;5.55;3.30;;;;;;;;;;4401459;32;64821;-59
2023/08/29 15:29:59;;;;;;;4.95;3.12;;;;;;;;;;4399915;32;68679;-60
2023/08/29 15:32:40;;;;;;;8.15;3.62;;;;;;;;;;3847614;37;43427;-60
2023/08/29 15:35:28;;;;;;;7.90;3.87;;;;;;;;;;4411156;32;58905;-60
2023/08/29 15:38:14;;;;;;;6.30;3.80;;;;;;;;;;4410721;32;70787;-60
2023/08/29 15:41:03;;;;;;;8.40;4.03;;;;;;;;;;4410756;32;68426;-60
2023/08/29 15:43:49;;;;;;;7.47;3.87;;;;;;;;;;4398174;32;68514;-60
2023/08/29 15:46:36;;;;;;;9.57;3.83;;;;;;;;;;4398524;32;71845;-61
2023/08/29 15:49:25;;;;;;;6.15;3.08;;;;;;;;;;4410529;32;65966;-60
2023/08/29 15:52:12;;;;;;;6.53;3.80;;;;;;;;;;4410580;32;67233;-59
2023/08/29 15:54:58;;;;;;;9.02;3.50;;;;;;;;;;4411010;32;60235;-59
2023/08/29 15:57:46;;;;;;;7.43;3.62;;;;;;;;;;4410372;32;71082;-59
2023/08/29 16:00:32;;;;;;;7.00;3.28;;;;;;;;;;4410548;32;64909;-58
2023/08/29 16:03:20;;;;;;;;;;;;;;;;;;4410826;32;67430;-59
2023/08/29 16:06:07;;;;;;;;;;;;;;;;;;4409988;32;59005;-59
2023/08/29 16:08:53;;;;;;;8.02;3.12;;;;;;;;;;4409313;32;69039;-59
2023/08/29 16:11:40;;;;;;;;;;;;;;;;;;4411049;32;70007;-59
2023/08/29 16:14:26;;;;;;;6.87;3.35;;;;;;;;;;4410440;32;67882;-60
2023/08/29 16:17:13;;;;;;;7.68;3.58;;;;;;;;;;4410130;32;71832;-59
2023/08/29 16:20:05;;;;;;;6.28;3.00;;;;;;;;;;4410747;32;65975;-59
2023/08/29 16:22:51;;;;;;;6.55;3.08;;;;;;;;;;4409212;32;69261;-61
2023/08/29 16:25:40;;;;;;;6.40;3.47;;;;;;;;;;4410470;32;67538;-60
2023/08/29 16:28:27;;;;;;;6.55;3.40;;;;;;;;;;4408992;32;71730;-61
2023/08/29 16:31:11;;;;;;;5.50;3.60;;;;;;;;;;3847320;37;43854;-60
2023/08/29 16:33:58;;;;;;;6.22;3.65;;;;;;;;;;4411347;32;59123;-60
2023/08/29 16:36:47;;;;;;;4.72;3.37;;;;;;;;;;4411064;32;70638;-60
2023/08/29 16:39:36;;;;;;;9.93;4.03;;;;;;;;;;4409785;32;69259;-61
2023/08/29 16:42:23;;;;;;;6.85;3.83;;;;;;;;;;4410962;32;67643;-60
2023/08/29 16:45:10;;;;;;;8.30;3.55;;;;;;;;;;4412371;32;70674;-60
2023/08/29 16:47:57;;;;;;;7.03;3.72;;;;;;;;;;4411013;32;65169;-60
2023/08/29 16:50:48;;;;;;;5.85;4.03;;;;;;;;;;4410784;32;66366;-62
2023/08/29 16:53:34;;;;;;;6.37;3.70;;;;;;;;;;4411096;32;60140;-59
2023/08/29 16:56:21;;;;;;;12.05;3.90;;;;;;;;;;4398091;32;72145;-61
2023/08/29 16:59:11;;;;;;;7.20;4.43;;;;;;;;;;4410616;32;66022;-60
2023/08/29 17:01:57;;;;;;;6.55;3.62;;;;;;;;;;4409469;32;67443;-60